sensor_id;sensor_type;location;lat;lon;timestamp;P1;durP1;ratioP1;P2;durP2;ratioP2
67500;SDS011;54349;52.528;19.760;2023-12-22T00:02:08;3.80;;;1.80;;
67500;SDS011;54349;52.528;19.760;2023-12-22T00:04:37;4.80;;;2.40;;
67500;SDS011;54349;52.528;19.760;2023-12-22T00:07:05;3.60;;;1.80;;
67500;SDS011;54349;52.528;19.760;2023-12-22T00:09:34;3.70;;;2.40;;
67500;SDS011;54349;52.528;19.760;2023-12-22T00:12:02;3.00;;;1.60;;
67500;SDS011;54349;52.528;19.760;2023-12-22T00:14:31;3.50;;;1.50;;
67500;SDS011;54349;52.528;19.760;2023-12-22T00:16:59;3.10;;;1.40;;
67500;SDS011;54349;52.528;19.760;2023-12-22T00:19:27;2.50;;;1.60;;
67500;SDS011;54349;52.528;19.760;2023-12-22T00:21:56;3.00;;;1.60;;
67500;SDS011;54349;52.528;19.760;2023-12-22T00:24:26;4.10;;;1.50;;
67500;SDS011;54349;52.528;19.760;2023-12-22T00:26:55;2.50;;;1.50;;
67500;SDS011;54349;52.528;19.760;2023-12-22T00:29:23;3.50;;;1.40;;
67500;SDS011;54349;52.528;19.760;2023-12-22T00:31:51;2.80;;;1.30;;
67500;SDS011;54349;52.528;19.760;2023-12-22T00:34:21;3.00;;;1.40;;
67500;SDS011;54349;52.528;19.760;2023-12-22T00:36:50;4.50;;;1.50;;
67500;SDS011;54349;52.528;19.760;2023-12-22T00:39:18;3.90;;;1.30;;
67500;SDS011;54349;52.528;19.760;2023-12-22T00:41:47;2.40;;;1.50;;
67500;SDS011;54349;52.528;19.760;2023-12-22T00:44:16;4.40;;;1.60;;
67500;SDS011;54349;52.528;19.760;2023-12-22T00:46:44;3.90;;;1.40;;
67500;SDS011;54349;52.528;19.760;2023-12-22T00:49:12;2.60;;;1.30;;
67500;SDS011;54349;52.528;19.760;2023-12-22T00:51:41;2.30;;;1.20;;
67500;SDS011;54349;52.528;19.760;2023-12-22T00:54:09;1.70;;;1.00;;
67500;SDS011;54349;52.528;19.760;2023-12-22T00:56:37;3.20;;;1.30;;
67500;SDS011;54349;52.528;19.760;2023-12-22T00:59:05;2.50;;;1.00;;
67500;SDS011;54349;52.528;19.760;2023-12-22T01:01:38;2.30;;;0.90;;
67500;SDS011;54349;52.528;19.760;2023-12-22T01:04:07;1.70;;;1.10;;
67500;SDS011;54349;52.528;19.760;2023-12-22T01:06:39;1.90;;;1.00;;
67500;SDS011;54349;52.528;19.760;2023-12-22T01:09:08;2.30;;;1.60;;
67500;SDS011;54349;52.528;19.760;2023-12-22T01:11:37;1.90;;;1.10;;
67500;SDS011;54349;52.528;19.760;2023-12-22T01:14:05;2.50;;;1.40;;
67500;SDS011;54349;52.528;19.760;2023-12-22T01:16:34;3.70;;;1.10;;
67500;SDS011;54349;52.528;19.760;2023-12-22T01:19:03;2.20;;;1.30;;
67500;SDS011;54349;52.528;19.760;2023-12-22T01:21:31;2.70;;;1.20;;
67500;SDS011;54349;52.528;19.760;2023-12-22T01:24:00;2.10;;;1.20;;
67500;SDS011;54349;52.528;19.760;2023-12-22T01:26:28;2.00;;;0.90;;
67500;SDS011;54349;52.528;19.760;2023-12-22T01:28:56;2.00;;;1.00;;
67500;SDS011;54349;52.528;19.760;2023-12-22T01:31:25;2.20;;;1.00;;
67500;SDS011;54349;52.528;19.760;2023-12-22T01:33:54;3.10;;;1.20;;
67500;SDS011;54349;52.528;19.760;2023-12-22T01:36:24;3.00;;;1.20;;
67500;SDS011;54349;52.528;19.760;2023-12-22T01:38:54;1.70;;;1.10;;
67500;SDS011;54349;52.528;19.760;2023-12-22T01:41:23;1.50;;;0.80;;
67500;SDS011;54349;52.528;19.760;2023-12-22T01:43:52;1.70;;;0.70;;
67500;SDS011;54349;52.528;19.760;2023-12-22T01:46:21;2.60;;;1.00;;
67500;SDS011;54349;52.528;19.760;2023-12-22T01:48:50;2.70;;;1.20;;
67500;SDS011;54349;52.528;19.760;2023-12-22T01:51:18;1.10;;;0.80;;
67500;SDS011;54349;52.528;19.760;2023-12-22T01:53:48;1.80;;;0.90;;
67500;SDS011;54349;52.528;19.760;2023-12-22T01:56:16;1.10;;;0.70;;
67500;SDS011;54349;52.528;19.760;2023-12-22T01:58:46;2.70;;;1.00;;
67500;SDS011;54349;52.528;19.760;2023-12-22T02:03:50;1.70;;;1.00;;
67500;SDS011;54349;52.528;19.760;2023-12-22T02:06:22;2.20;;;0.70;;
67500;SDS011;54349;52.528;19.760;2023-12-22T02:08:51;1.60;;;0.90;;
67500;SDS011;54349;52.528;19.760;2023-12-22T02:11:19;2.60;;;0.70;;
67500;SDS011;54349;52.528;19.760;2023-12-22T02:13:47;1.90;;;1.00;;
67500;SDS011;54349;52.528;19.760;2023-12-22T02:18:44;1.30;;;0.60;;
67500;SDS011;54349;52.528;19.760;2023-12-22T02:21:17;1.90;;;1.20;;
67500;SDS011;54349;52.528;19.760;2023-12-22T02:23:47;1.90;;;0.80;;
67500;SDS011;54349;52.528;19.760;2023-12-22T02:26:41;0.60;;;0.50;;
67500;SDS011;54349;52.528;19.760;2023-12-22T02:29:07;0.80;;;0.80;;
67500;SDS011;54349;52.528;19.760;2023-12-22T02:31:42;3.10;;;1.00;;
67500;SDS011;54349;52.528;19.760;2023-12-22T02:34:18;1.50;;;0.60;;
67500;SDS011;54349;52.528;19.760;2023-12-22T02:36:48;1.40;;;0.80;;
67500;SDS011;54349;52.528;19.760;2023-12-22T02:39:18;2.00;;;0.70;;
67500;SDS011;54349;52.528;19.760;2023-12-22T02:41:48;0.90;;;0.40;;
67500;SDS011;54349;52.528;19.760;2023-12-22T02:44:17;1.30;;;0.60;;
67500;SDS011;54349;52.528;19.760;2023-12-22T02:46:46;1.90;;;0.70;;
67500;SDS011;54349;52.528;19.760;2023-12-22T02:49:14;0.90;;;0.60;;
67500;SDS011;54349;52.528;19.760;2023-12-22T02:51:45;1.90;;;1.10;;
67500;SDS011;54349;52.528;19.760;2023-12-22T02:54:13;2.10;;;0.80;;
67500;SDS011;54349;52.528;19.760;2023-12-22T02:56:41;2.30;;;0.80;;
67500;SDS011;54349;52.528;19.760;2023-12-22T02:59:13;2.60;;;0.90;;
67500;SDS011;54349;52.528;19.760;2023-12-22T03:01:42;1.20;;;0.60;;
67500;SDS011;54349;52.528;19.760;2023-12-22T03:04:10;1.20;;;0.60;;
67500;SDS011;54349;52.528;19.760;2023-12-22T03:06:38;1.10;;;0.50;;
67500;SDS011;54349;52.528;19.760;2023-12-22T03:09:07;0.70;;;0.50;;
67500;SDS011;54349;52.528;19.760;2023-12-22T03:11:35;0.90;;;0.60;;
67500;SDS011;54349;52.528;19.760;2023-12-22T03:14:03;2.00;;;0.60;;
67500;SDS011;54349;52.528;19.760;2023-12-22T03:16:32;0.90;;;0.40;;
67500;SDS011;54349;52.528;19.760;2023-12-22T03:19:00;1.80;;;0.50;;
67500;SDS011;54349;52.528;19.760;2023-12-22T03:21:28;1.10;;;0.40;;
67500;SDS011;54349;52.528;19.760;2023-12-22T03:23:58;1.70;;;0.50;;
67500;SDS011;54349;52.528;19.760;2023-12-22T03:26:27;0.90;;;0.60;;
67500;SDS011;54349;52.528;19.760;2023-12-22T03:28:55;2.00;;;0.60;;
67500;SDS011;54349;52.528;19.760;2023-12-22T03:31:24;1.90;;;0.70;;
67500;SDS011;54349;52.528;19.760;2023-12-22T03:33:52;1.10;;;0.40;;
67500;SDS011;54349;52.528;19.760;2023-12-22T03:36:21;1.00;;;0.50;;
67500;SDS011;54349;52.528;19.760;2023-12-22T03:38:49;1.20;;;0.50;;
67500;SDS011;54349;52.528;19.760;2023-12-22T03:41:18;1.40;;;0.60;;
67500;SDS011;54349;52.528;19.760;2023-12-22T03:43:46;0.80;;;0.60;;
67500;SDS011;54349;52.528;19.760;2023-12-22T03:46:14;0.80;;;0.80;;
67500;SDS011;54349;52.528;19.760;2023-12-22T03:48:42;0.50;;;0.40;;
67500;SDS011;54349;52.528;19.760;2023-12-22T03:51:11;1.60;;;0.50;;
67500;SDS011;54349;52.528;19.760;2023-12-22T03:53:41;1.60;;;0.60;;
67500;SDS011;54349;52.528;19.760;2023-12-22T03:56:09;1.20;;;0.80;;
67500;SDS011;54349;52.528;19.760;2023-12-22T03:58:38;1.90;;;0.80;;
67500;SDS011;54349;52.528;19.760;2023-12-22T04:01:07;1.90;;;0.90;;
67500;SDS011;54349;52.528;19.760;2023-12-22T04:03:35;0.90;;;0.60;;
67500;SDS011;54349;52.528;19.760;2023-12-22T04:06:06;2.00;;;0.70;;
67500;SDS011;54349;52.528;19.760;2023-12-22T04:08:34;1.80;;;0.70;;
67500;SDS011;54349;52.528;19.760;2023-12-22T04:11:02;0.70;;;0.40;;
67500;SDS011;54349;52.528;19.760;2023-12-22T04:13:31;1.60;;;0.50;;
67500;SDS011;54349;52.528;19.760;2023-12-22T04:15:59;0.70;;;0.40;;
67500;SDS011;54349;52.528;19.760;2023-12-22T04:18:27;1.30;;;0.40;;
67500;SDS011;54349;52.528;19.760;2023-12-22T04:20:55;1.60;;;0.80;;
67500;SDS011;54349;52.528;19.760;2023-12-22T04:23:23;1.40;;;0.60;;
67500;SDS011;54349;52.528;19.760;2023-12-22T04:25:51;1.20;;;0.50;;
67500;SDS011;54349;52.528;19.760;2023-12-22T04:28:20;1.10;;;0.60;;
67500;SDS011;54349;52.528;19.760;2023-12-22T04:30:48;1.60;;;0.50;;
67500;SDS011;54349;52.528;19.760;2023-12-22T04:33:16;1.90;;;0.60;;
67500;SDS011;54349;52.528;19.760;2023-12-22T04:35:44;2.60;;;0.60;;
67500;SDS011;54349;52.528;19.760;2023-12-22T04:38:12;2.30;;;0.80;;
67500;SDS011;54349;52.528;19.760;2023-12-22T04:40:41;1.70;;;0.60;;
67500;SDS011;54349;52.528;19.760;2023-12-22T04:43:09;1.00;;;0.70;;
67500;SDS011;54349;52.528;19.760;2023-12-22T04:45:37;2.20;;;0.40;;
67500;SDS011;54349;52.528;19.760;2023-12-22T04:48:05;1.80;;;0.70;;
67500;SDS011;54349;52.528;19.760;2023-12-22T04:50:33;1.70;;;0.50;;
67500;SDS011;54349;52.528;19.760;2023-12-22T04:53:02;1.20;;;0.40;;
67500;SDS011;54349;52.528;19.760;2023-12-22T04:55:31;1.60;;;0.30;;
67500;SDS011;54349;52.528;19.760;2023-12-22T04:57:59;1.50;;;0.50;;
67500;SDS011;54349;52.528;19.760;2023-12-22T05:00:27;2.20;;;0.80;;
67500;SDS011;54349;52.528;19.760;2023-12-22T05:02:55;1.20;;;0.50;;
67500;SDS011;54349;52.528;19.760;2023-12-22T05:05:24;1.40;;;0.40;;
67500;SDS011;54349;52.528;19.760;2023-12-22T05:07:55;1.90;;;0.70;;
67500;SDS011;54349;52.528;19.760;2023-12-22T05:10:24;0.80;;;0.50;;
67500;SDS011;54349;52.528;19.760;2023-12-22T05:12:52;1.20;;;0.60;;
67500;SDS011;54349;52.528;19.760;2023-12-22T05:15:20;1.40;;;0.80;;
67500;SDS011;54349;52.528;19.760;2023-12-22T05:17:50;0.90;;;0.30;;
67500;SDS011;54349;52.528;19.760;2023-12-22T05:20:20;1.80;;;0.60;;
67500;SDS011;54349;52.528;19.760;2023-12-22T05:22:48;1.00;;;0.60;;
67500;SDS011;54349;52.528;19.760;2023-12-22T05:25:17;2.30;;;0.70;;
67500;SDS011;54349;52.528;19.760;2023-12-22T05:27:48;1.80;;;0.50;;
67500;SDS011;54349;52.528;19.760;2023-12-22T05:30:17;0.80;;;0.50;;
67500;SDS011;54349;52.528;19.760;2023-12-22T05:32:46;1.90;;;0.30;;
67500;SDS011;54349;52.528;19.760;2023-12-22T05:35:14;1.40;;;0.40;;
67500;SDS011;54349;52.528;19.760;2023-12-22T05:37:43;2.50;;;0.40;;
67500;SDS011;54349;52.528;19.760;2023-12-22T05:40:11;1.50;;;0.40;;
67500;SDS011;54349;52.528;19.760;2023-12-22T05:42:40;1.70;;;0.50;;
67500;SDS011;54349;52.528;19.760;2023-12-22T05:45:08;1.10;;;0.40;;
67500;SDS011;54349;52.528;19.760;2023-12-22T05:47:39;0.60;;;0.30;;
67500;SDS011;54349;52.528;19.760;2023-12-22T05:50:17;1.50;;;0.50;;
67500;SDS011;54349;52.528;19.760;2023-12-22T05:52:46;2.70;;;0.70;;
67500;SDS011;54349;52.528;19.760;2023-12-22T05:55:14;1.30;;;0.50;;
67500;SDS011;54349;52.528;19.760;2023-12-22T05:57:43;0.80;;;0.50;;
67500;SDS011;54349;52.528;19.760;2023-12-22T06:00:12;1.40;;;0.50;;
67500;SDS011;54349;52.528;19.760;2023-12-22T06:02:42;1.10;;;0.60;;
67500;SDS011;54349;52.528;19.760;2023-12-22T06:05:11;1.20;;;0.40;;
67500;SDS011;54349;52.528;19.760;2023-12-22T06:07:40;0.80;;;0.40;;
67500;SDS011;54349;52.528;19.760;2023-12-22T06:10:08;2.00;;;0.50;;
67500;SDS011;54349;52.528;19.760;2023-12-22T06:12:37;1.00;;;0.50;;
67500;SDS011;54349;52.528;19.760;2023-12-22T06:15:06;1.70;;;0.50;;
67500;SDS011;54349;52.528;19.760;2023-12-22T06:17:34;0.50;;;0.40;;
67500;SDS011;54349;52.528;19.760;2023-12-22T06:20:02;1.60;;;0.60;;
67500;SDS011;54349;52.528;19.760;2023-12-22T06:22:31;1.00;;;0.40;;
67500;SDS011;54349;52.528;19.760;2023-12-22T06:25:00;2.10;;;0.30;;
67500;SDS011;54349;52.528;19.760;2023-12-22T06:27:35;1.50;;;0.30;;
67500;SDS011;54349;52.528;19.760;2023-12-22T06:30:05;1.90;;;0.70;;
67500;SDS011;54349;52.528;19.760;2023-12-22T06:32:34;1.70;;;0.50;;
67500;SDS011;54349;52.528;19.760;2023-12-22T06:35:02;2.10;;;0.60;;
67500;SDS011;54349;52.528;19.760;2023-12-22T06:37:31;2.70;;;0.40;;
67500;SDS011;54349;52.528;19.760;2023-12-22T06:39:59;2.10;;;0.90;;
67500;SDS011;54349;52.528;19.760;2023-12-22T06:42:31;3.60;;;0.80;;
67500;SDS011;54349;52.528;19.760;2023-12-22T06:44:59;1.20;;;0.60;;
67500;SDS011;54349;52.528;19.760;2023-12-22T06:47:27;3.20;;;0.90;;
67500;SDS011;54349;52.528;19.760;2023-12-22T06:49:56;0.60;;;0.50;;
67500;SDS011;54349;52.528;19.760;2023-12-22T06:52:25;6.20;;;1.10;;
67500;SDS011;54349;52.528;19.760;2023-12-22T06:54:53;1.60;;;0.50;;
67500;SDS011;54349;52.528;19.760;2023-12-22T06:57:21;0.90;;;0.30;;
67500;SDS011;54349;52.528;19.760;2023-12-22T06:59:52;1.10;;;0.50;;
67500;SDS011;54349;52.528;19.760;2023-12-22T07:02:21;1.50;;;0.40;;
67500;SDS011;54349;52.528;19.760;2023-12-22T07:07:55;1.20;;;0.40;;
67500;SDS011;54349;52.528;19.760;2023-12-22T07:10:26;1.10;;;0.30;;
67500;SDS011;54349;52.528;19.760;2023-12-22T07:12:54;2.60;;;0.50;;
67500;SDS011;54349;52.528;19.760;2023-12-22T07:15:22;2.60;;;0.50;;
67500;SDS011;54349;52.528;19.760;2023-12-22T07:17:50;2.60;;;0.80;;
67500;SDS011;54349;52.528;19.760;2023-12-22T07:20:20;1.10;;;0.50;;
67500;SDS011;54349;52.528;19.760;2023-12-22T07:22:48;1.10;;;0.40;;
67500;SDS011;54349;52.528;19.760;2023-12-22T07:25:18;1.50;;;0.60;;
67500;SDS011;54349;52.528;19.760;2023-12-22T07:27:47;0.80;;;0.30;;
67500;SDS011;54349;52.528;19.760;2023-12-22T07:30:15;1.00;;;0.30;;
67500;SDS011;54349;52.528;19.760;2023-12-22T07:32:45;2.40;;;0.60;;
67500;SDS011;54349;52.528;19.760;2023-12-22T07:35:15;2.90;;;0.70;;
67500;SDS011;54349;52.528;19.760;2023-12-22T07:37:45;1.80;;;0.70;;
67500;SDS011;54349;52.528;19.760;2023-12-22T07:40:14;1.60;;;0.60;;
67500;SDS011;54349;52.528;19.760;2023-12-22T07:42:44;1.10;;;0.40;;
67500;SDS011;54349;52.528;19.760;2023-12-22T07:45:13;2.90;;;0.90;;
67500;SDS011;54349;52.528;19.760;2023-12-22T07:47:41;1.30;;;0.40;;
67500;SDS011;54349;52.528;19.760;2023-12-22T07:50:10;1.60;;;0.60;;
67500;SDS011;54349;52.528;19.760;2023-12-22T07:52:39;1.70;;;0.30;;
67500;SDS011;54349;52.528;19.760;2023-12-22T07:55:09;1.30;;;0.50;;
67500;SDS011;54349;52.528;19.760;2023-12-22T07:57:38;1.20;;;0.60;;
67500;SDS011;54349;52.528;19.760;2023-12-22T08:00:06;0.40;;;0.20;;
67500;SDS011;54349;52.528;19.760;2023-12-22T08:02:40;1.30;;;0.40;;
67500;SDS011;54349;52.528;19.760;2023-12-22T08:05:08;3.10;;;0.50;;
67500;SDS011;54349;52.528;19.760;2023-12-22T08:07:37;2.20;;;0.50;;
67500;SDS011;54349;52.528;19.760;2023-12-22T08:10:05;2.20;;;0.30;;
67500;SDS011;54349;52.528;19.760;2023-12-22T08:12:34;3.10;;;0.40;;
67500;SDS011;54349;52.528;19.760;2023-12-22T08:15:03;3.80;;;0.70;;
67500;SDS011;54349;52.528;19.760;2023-12-22T08:17:32;3.20;;;0.80;;
67500;SDS011;54349;52.528;19.760;2023-12-22T08:20:01;1.50;;;0.40;;
67500;SDS011;54349;52.528;19.760;2023-12-22T08:22:39;1.50;;;0.40;;
67500;SDS011;54349;52.528;19.760;2023-12-22T08:25:13;2.10;;;0.70;;
67500;SDS011;54349;52.528;19.760;2023-12-22T08:27:45;1.00;;;0.40;;
67500;SDS011;54349;52.528;19.760;2023-12-22T08:30:15;1.90;;;0.50;;
67500;SDS011;54349;52.528;19.760;2023-12-22T08:32:43;0.90;;;0.40;;
67500;SDS011;54349;52.528;19.760;2023-12-22T08:35:11;1.70;;;0.70;;
67500;SDS011;54349;52.528;19.760;2023-12-22T08:37:39;1.20;;;0.40;;
67500;SDS011;54349;52.528;19.760;2023-12-22T08:40:08;2.50;;;0.70;;
67500;SDS011;54349;52.528;19.760;2023-12-22T08:42:37;1.80;;;0.50;;
67500;SDS011;54349;52.528;19.760;2023-12-22T08:45:05;2.30;;;0.40;;
67500;SDS011;54349;52.528;19.760;2023-12-22T08:47:33;1.70;;;0.70;;
67500;SDS011;54349;52.528;19.760;2023-12-22T08:50:02;2.60;;;0.40;;
67500;SDS011;54349;52.528;19.760;2023-12-22T08:52:32;1.70;;;0.60;;
67500;SDS011;54349;52.528;19.760;2023-12-22T08:55:01;1.50;;;0.30;;
67500;SDS011;54349;52.528;19.760;2023-12-22T08:57:31;1.00;;;0.30;;
67500;SDS011;54349;52.528;19.760;2023-12-22T08:59:59;1.50;;;0.40;;
67500;SDS011;54349;52.528;19.760;2023-12-22T09:02:28;1.90;;;0.40;;
67500;SDS011;54349;52.528;19.760;2023-12-22T09:04:57;1.60;;;0.50;;
67500;SDS011;54349;52.528;19.760;2023-12-22T09:07:27;0.80;;;0.20;;
67500;SDS011;54349;52.528;19.760;2023-12-22T09:09:55;0.90;;;0.40;;
67500;SDS011;54349;52.528;19.760;2023-12-22T09:12:23;1.40;;;0.50;;
67500;SDS011;54349;52.528;19.760;2023-12-22T09:14:52;0.90;;;0.30;;
67500;SDS011;54349;52.528;19.760;2023-12-22T09:17:21;0.60;;;0.30;;
67500;SDS011;54349;52.528;19.760;2023-12-22T09:19:51;0.90;;;0.40;;
67500;SDS011;54349;52.528;19.760;2023-12-22T09:22:19;1.80;;;0.80;;
67500;SDS011;54349;52.528;19.760;2023-12-22T09:24:47;1.00;;;0.40;;
67500;SDS011;54349;52.528;19.760;2023-12-22T09:27:17;0.90;;;0.30;;
67500;SDS011;54349;52.528;19.760;2023-12-22T09:29:45;1.00;;;0.50;;
67500;SDS011;54349;52.528;19.760;2023-12-22T09:32:14;0.90;;;0.30;;
67500;SDS011;54349;52.528;19.760;2023-12-22T09:34:42;2.20;;;0.10;;
67500;SDS011;54349;52.528;19.760;2023-12-22T09:37:10;2.00;;;0.30;;
67500;SDS011;54349;52.528;19.760;2023-12-22T09:39:38;0.50;;;0.10;;
67500;SDS011;54349;52.528;19.760;2023-12-22T09:42:06;1.10;;;0.50;;
67500;SDS011;54349;52.528;19.760;2023-12-22T09:44:34;0.50;;;0.10;;
67500;SDS011;54349;52.528;19.760;2023-12-22T09:49:36;0.30;;;0.20;;
67500;SDS011;54349;52.528;19.760;2023-12-22T09:52:06;1.00;;;0.30;;
67500;SDS011;54349;52.528;19.760;2023-12-22T09:54:36;0.70;;;0.10;;
67500;SDS011;54349;52.528;19.760;2023-12-22T09:57:06;0.20;;;0.20;;
67500;SDS011;54349;52.528;19.760;2023-12-22T09:59:49;1.10;;;0.10;;
67500;SDS011;54349;52.528;19.760;2023-12-22T10:02:20;0.60;;;0.30;;
67500;SDS011;54349;52.528;19.760;2023-12-22T10:04:50;0.20;;;0.10;;
67500;SDS011;54349;52.528;19.760;2023-12-22T10:07:20;0.70;;;0.30;;
67500;SDS011;54349;52.528;19.760;2023-12-22T10:09:53;0.50;;;0.20;;
67500;SDS011;54349;52.528;19.760;2023-12-22T10:12:24;1.30;;;0.30;;
67500;SDS011;54349;52.528;19.760;2023-12-22T10:14:55;0.80;;;0.10;;
67500;SDS011;54349;52.528;19.760;2023-12-22T10:17:24;0.80;;;0.30;;
67500;SDS011;54349;52.528;19.760;2023-12-22T10:19:53;0.70;;;0.10;;
67500;SDS011;54349;52.528;19.760;2023-12-22T10:22:21;0.40;;;0.20;;
67500;SDS011;54349;52.528;19.760;2023-12-22T10:24:52;0.10;;;0.00;;
67500;SDS011;54349;52.528;19.760;2023-12-22T10:27:20;1.00;;;0.10;;
67500;SDS011;54349;52.528;19.760;2023-12-22T10:29:56;0.70;;;0.40;;
67500;SDS011;54349;52.528;19.760;2023-12-22T10:32:25;0.30;;;0.20;;
67500;SDS011;54349;52.528;19.760;2023-12-22T10:34:55;0.40;;;0.20;;
67500;SDS011;54349;52.528;19.760;2023-12-22T10:37:27;0.40;;;0.20;;
67500;SDS011;54349;52.528;19.760;2023-12-22T10:39:55;0.20;;;0.10;;
67500;SDS011;54349;52.528;19.760;2023-12-22T10:42:24;0.40;;;0.10;;
67500;SDS011;54349;52.528;19.760;2023-12-22T10:44:52;0.20;;;0.20;;
67500;SDS011;54349;52.528;19.760;2023-12-22T10:47:23;0.90;;;0.30;;
67500;SDS011;54349;52.528;19.760;2023-12-22T10:49:51;0.70;;;0.20;;
67500;SDS011;54349;52.528;19.760;2023-12-22T10:52:20;0.40;;;0.20;;
67500;SDS011;54349;52.528;19.760;2023-12-22T10:54:48;0.90;;;0.40;;
67500;SDS011;54349;52.528;19.760;2023-12-22T10:57:20;0.40;;;0.20;;
67500;SDS011;54349;52.528;19.760;2023-12-22T10:59:48;1.80;;;0.40;;
67500;SDS011;54349;52.528;19.760;2023-12-22T11:02:26;1.20;;;0.40;;
67500;SDS011;54349;52.528;19.760;2023-12-22T11:05:01;4.30;;;0.40;;
67500;SDS011;54349;52.528;19.760;2023-12-22T11:07:36;1.30;;;0.70;;
67500;SDS011;54349;52.528;19.760;2023-12-22T11:10:07;0.60;;;0.50;;
67500;SDS011;54349;52.528;19.760;2023-12-22T11:12:39;3.40;;;0.40;;
67500;SDS011;54349;52.528;19.760;2023-12-22T11:15:08;3.10;;;0.60;;
67500;SDS011;54349;52.528;19.760;2023-12-22T11:17:42;1.90;;;0.70;;
67500;SDS011;54349;52.528;19.760;2023-12-22T11:20:10;1.50;;;0.50;;
67500;SDS011;54349;52.528;19.760;2023-12-22T11:22:44;1.50;;;0.60;;
67500;SDS011;54349;52.528;19.760;2023-12-22T11:25:13;0.80;;;0.40;;
67500;SDS011;54349;52.528;19.760;2023-12-22T11:27:44;1.60;;;0.50;;
67500;SDS011;54349;52.528;19.760;2023-12-22T11:30:15;2.50;;;0.60;;
67500;SDS011;54349;52.528;19.760;2023-12-22T11:32:45;1.10;;;0.40;;
67500;SDS011;54349;52.528;19.760;2023-12-22T11:35:14;1.90;;;0.60;;
67500;SDS011;54349;52.528;19.760;2023-12-22T11:37:46;1.70;;;0.50;;
67500;SDS011;54349;52.528;19.760;2023-12-22T11:40:17;1.50;;;0.30;;
67500;SDS011;54349;52.528;19.760;2023-12-22T11:42:47;1.00;;;0.30;;
67500;SDS011;54349;52.528;19.760;2023-12-22T11:45:19;1.90;;;0.50;;
67500;SDS011;54349;52.528;19.760;2023-12-22T11:47:48;2.00;;;1.00;;
67500;SDS011;54349;52.528;19.760;2023-12-22T11:50:27;2.00;;;0.70;;
67500;SDS011;54349;52.528;19.760;2023-12-22T11:53:18;1.30;;;0.40;;
67500;SDS011;54349;52.528;19.760;2023-12-22T12:01:05;1.70;;;0.70;;
67500;SDS011;54349;52.528;19.760;2023-12-22T12:03:48;2.00;;;0.60;;
67500;SDS011;54349;52.528;19.760;2023-12-22T12:06:33;1.50;;;0.40;;
67500;SDS011;54349;52.528;19.760;2023-12-22T12:09:03;2.10;;;0.80;;
67500;SDS011;54349;52.528;19.760;2023-12-22T12:14:29;1.90;;;0.70;;
67500;SDS011;54349;52.528;19.760;2023-12-22T12:17:10;1.80;;;0.60;;
67500;SDS011;54349;52.528;19.760;2023-12-22T12:19:40;0.80;;;0.40;;
67500;SDS011;54349;52.528;19.760;2023-12-22T12:22:12;1.50;;;0.50;;
67500;SDS011;54349;52.528;19.760;2023-12-22T12:24:41;0.60;;;0.30;;
67500;SDS011;54349;52.528;19.760;2023-12-22T12:27:17;1.10;;;0.30;;
67500;SDS011;54349;52.528;19.760;2023-12-22T12:29:46;1.20;;;0.30;;
67500;SDS011;54349;52.528;19.760;2023-12-22T12:32:14;0.50;;;0.30;;
67500;SDS011;54349;52.528;19.760;2023-12-22T12:34:43;1.90;;;0.60;;
67500;SDS011;54349;52.528;19.760;2023-12-22T12:37:12;2.00;;;0.60;;
67500;SDS011;54349;52.528;19.760;2023-12-22T12:39:42;0.70;;;0.40;;
67500;SDS011;54349;52.528;19.760;2023-12-22T12:42:12;2.60;;;1.20;;
67500;SDS011;54349;52.528;19.760;2023-12-22T12:44:43;3.00;;;1.70;;
67500;SDS011;54349;52.528;19.760;2023-12-22T12:47:14;3.30;;;1.40;;
67500;SDS011;54349;52.528;19.760;2023-12-22T12:49:43;3.40;;;1.20;;
67500;SDS011;54349;52.528;19.760;2023-12-22T12:52:13;6.40;;;1.30;;
67500;SDS011;54349;52.528;19.760;2023-12-22T12:57:15;2.90;;;1.20;;
67500;SDS011;54349;52.528;19.760;2023-12-22T12:59:46;3.40;;;1.30;;
67500;SDS011;54349;52.528;19.760;2023-12-22T13:02:18;2.60;;;1.10;;
67500;SDS011;54349;52.528;19.760;2023-12-22T13:04:48;3.30;;;1.40;;
67500;SDS011;54349;52.528;19.760;2023-12-22T13:07:23;1.80;;;1.30;;
67500;SDS011;54349;52.528;19.760;2023-12-22T13:09:53;2.20;;;0.90;;
67500;SDS011;54349;52.528;19.760;2023-12-22T13:12:23;1.70;;;1.10;;
67500;SDS011;54349;52.528;19.760;2023-12-22T13:14:53;2.10;;;1.10;;
67500;SDS011;54349;52.528;19.760;2023-12-22T13:17:22;2.60;;;0.90;;
67500;SDS011;54349;52.528;19.760;2023-12-22T13:19:53;1.60;;;0.70;;
67500;SDS011;54349;52.528;19.760;2023-12-22T13:22:21;3.10;;;0.90;;
67500;SDS011;54349;52.528;19.760;2023-12-22T13:24:56;3.30;;;1.10;;
67500;SDS011;54349;52.528;19.760;2023-12-22T13:27:29;3.20;;;1.00;;
67500;SDS011;54349;52.528;19.760;2023-12-22T13:29:58;3.00;;;1.10;;
67500;SDS011;54349;52.528;19.760;2023-12-22T13:32:27;2.50;;;1.40;;
67500;SDS011;54349;52.528;19.760;2023-12-22T13:34:56;2.50;;;1.30;;
67500;SDS011;54349;52.528;19.760;2023-12-22T13:37:27;2.10;;;0.80;;
67500;SDS011;54349;52.528;19.760;2023-12-22T13:39:59;2.10;;;0.90;;
67500;SDS011;54349;52.528;19.760;2023-12-22T13:42:28;3.50;;;1.00;;
67500;SDS011;54349;52.528;19.760;2023-12-22T13:44:56;1.40;;;0.80;;
67500;SDS011;54349;52.528;19.760;2023-12-22T13:47:24;2.60;;;0.70;;
67500;SDS011;54349;52.528;19.760;2023-12-22T13:49:55;2.50;;;1.00;;
67500;SDS011;54349;52.528;19.760;2023-12-22T13:52:26;2.00;;;0.70;;
67500;SDS011;54349;52.528;19.760;2023-12-22T13:55:13;2.20;;;0.90;;
67500;SDS011;54349;52.528;19.760;2023-12-22T13:57:44;1.60;;;0.90;;
67500;SDS011;54349;52.528;19.760;2023-12-22T14:02:48;2.20;;;1.00;;
67500;SDS011;54349;52.528;19.760;2023-12-22T14:05:20;2.20;;;0.90;;
67500;SDS011;54349;52.528;19.760;2023-12-22T14:07:50;1.00;;;0.60;;
67500;SDS011;54349;52.528;19.760;2023-12-22T14:10:22;1.70;;;0.90;;
67500;SDS011;54349;52.528;19.760;2023-12-22T14:12:50;2.00;;;0.80;;
67500;SDS011;54349;52.528;19.760;2023-12-22T14:15:22;1.30;;;0.90;;
67500;SDS011;54349;52.528;19.760;2023-12-22T14:17:58;0.90;;;0.60;;
67500;SDS011;54349;52.528;19.760;2023-12-22T14:20:26;1.00;;;0.50;;
67500;SDS011;54349;52.528;19.760;2023-12-22T14:22:54;1.60;;;0.60;;
67500;SDS011;54349;52.528;19.760;2023-12-22T14:25:22;2.40;;;0.60;;
67500;SDS011;54349;52.528;19.760;2023-12-22T14:27:53;1.30;;;0.50;;
67500;SDS011;54349;52.528;19.760;2023-12-22T14:30:25;1.40;;;0.70;;
67500;SDS011;54349;52.528;19.760;2023-12-22T14:32:53;2.50;;;0.90;;
67500;SDS011;54349;52.528;19.760;2023-12-22T14:35:22;2.40;;;1.10;;
67500;SDS011;54349;52.528;19.760;2023-12-22T14:37:51;2.10;;;0.80;;
67500;SDS011;54349;52.528;19.760;2023-12-22T14:40:19;2.70;;;1.20;;
67500;SDS011;54349;52.528;19.760;2023-12-22T14:42:48;2.90;;;1.30;;
67500;SDS011;54349;52.528;19.760;2023-12-22T14:45:16;3.20;;;1.10;;
67500;SDS011;54349;52.528;19.760;2023-12-22T14:47:44;1.80;;;1.20;;
67500;SDS011;54349;52.528;19.760;2023-12-22T14:50:13;2.30;;;1.50;;
67500;SDS011;54349;52.528;19.760;2023-12-22T14:52:41;2.70;;;1.10;;
67500;SDS011;54349;52.528;19.760;2023-12-22T14:55:09;2.10;;;1.10;;
67500;SDS011;54349;52.528;19.760;2023-12-22T14:57:37;3.20;;;1.20;;
67500;SDS011;54349;52.528;19.760;2023-12-22T15:00:05;0.90;;;0.90;;
67500;SDS011;54349;52.528;19.760;2023-12-22T15:02:34;1.60;;;0.90;;
67500;SDS011;54349;52.528;19.760;2023-12-22T15:05:03;1.50;;;1.00;;
67500;SDS011;54349;52.528;19.760;2023-12-22T15:07:33;2.90;;;1.00;;
67500;SDS011;54349;52.528;19.760;2023-12-22T15:10:02;3.90;;;1.30;;
67500;SDS011;54349;52.528;19.760;2023-12-22T15:12:33;2.90;;;1.20;;